createdAt,value
2017-11-06T00:00:03.362Z,32.4
2017-11-06T00:01:02.317Z,32.4
2017-11-06T00:02:03.290Z,32.4
2017-11-06T00:03:02.538Z,32.4
2017-11-06T00:04:03.479Z,32.4
2017-11-06T00:05:02.617Z,32.4
2017-11-06T00:06:03.754Z,32.4
2017-11-06T00:07:03.690Z,32.4
2017-11-06T00:08:03.647Z,32.4
2017-11-06T00:09:03.960Z,32.4
2017-11-06T00:10:02.909Z,32.4
2017-11-06T00:11:02.713Z,32.4
2017-11-06T00:12:03.850Z,32.4
2017-11-06T00:13:03.906Z,32.4
2017-11-06T00:14:03.943Z,32.4
2017-11-06T00:15:02.886Z,32.4
2017-11-06T00:16:02.908Z,32.4
2017-11-06T00:17:03.131Z,32.4
2017-11-06T00:18:04.287Z,32.4
2017-11-06T00:19:03.182Z,32.4
2017-11-06T00:20:03.213Z,32.4
2017-11-06T00:21:03.274Z,32.4
2017-11-06T00:22:03.270Z,32.4
2017-11-06T00:23:04.495Z,32.4
2017-11-06T00:24:03.278Z,32.4
2017-11-06T00:25:03.438Z,32.4
2017-11-06T00:26:03.312Z,32.4
2017-11-06T00:27:04.667Z,32.4
2017-11-06T00:28:03.516Z,32.4
2017-11-06T00:29:03.720Z,32.4
2017-11-06T00:30:04.684Z,32.4
2017-11-06T00:31:04.713Z,32.4
2017-11-06T00:32:04.800Z,32.4
2017-11-06T00:33:04.761Z,32.4
2017-11-06T00:34:05.089Z,32.4
2017-11-06T00:35:04.878Z,32.4
2017-11-06T00:36:05.174Z,32.4
2017-11-06T00:37:05.237Z,32.4
2017-11-06T00:38:05.053Z,32.4
2017-11-06T00:39:04.052Z,32.4
2017-11-06T00:40:04.241Z,32.4
2017-11-06T00:41:05.386Z,32.4
2017-11-06T00:42:05.467Z,32.4
2017-11-06T00:43:05.375Z,32.4
2017-11-06T00:44:05.398Z,32.4
2017-11-06T00:45:05.476Z,32.4
2017-11-06T00:46:05.504Z,32.4
2017-11-06T00:47:05.487Z,32.4
2017-11-06T00:48:04.524Z,32.4
2017-11-06T00:49:04.625Z,32.4
2017-11-06T00:50:05.737Z,32.4
2017-11-06T00:51:05.763Z,32.4
2017-11-06T00:52:06.087Z,32.4
2017-11-06T00:53:04.846Z,32.4
2017-11-06T00:54:05.063Z,32.4
2017-11-06T00:55:06.193Z,32.4
2017-11-06T00:56:04.968Z,32.4
2017-11-06T00:57:06.324Z,32.4
2017-11-06T00:58:05.000Z,32.4
2017-11-06T00:59:05.100Z,32.4
2017-11-06T01:00:06.478Z,32.4
2017-11-06T01:01:06.538Z,32.4
2017-11-06T01:02:06.377Z,32.4
2017-11-06T01:03:06.593Z,32.4
2017-11-06T01:04:06.396Z,32.4
2017-11-06T01:05:06.402Z,32.4
2017-11-06T01:06:06.464Z,32.4
2017-11-06T01:07:06.713Z,32.4
2017-11-06T01:08:06.572Z,32.4
2017-11-06T01:09:05.723Z,32.4
2017-11-06T01:10:06.670Z,32.4
2017-11-06T01:11:06.941Z,32.4
2017-11-06T01:12:07.020Z,32.4
2017-11-06T01:13:06.825Z,32.4
2017-11-06T01:14:06.806Z,32.4
2017-11-06T01:15:06.943Z,32.4
2017-11-06T01:16:07.146Z,32.4
2017-11-06T01:17:05.932Z,32.4
2017-11-06T01:18:07.298Z,32.4
2017-11-06T01:19:06.243Z,32.4
2017-11-06T01:20:06.313Z,32.4
2017-11-06T01:21:06.208Z,32.4
2017-11-06T01:22:06.217Z,32.4
2017-11-06T01:23:07.513Z,32.4
2017-11-06T01:24:06.286Z,32.4
2017-11-06T01:25:07.577Z,32.4
2017-11-06T01:26:07.440Z,32.4
2017-11-06T01:27:07.676Z,32.4
2017-11-06T01:28:07.746Z,32.4
2017-11-06T01:29:07.824Z,32.4
2017-11-06T01:30:07.649Z,32.4
2017-11-06T01:31:07.944Z,32.4
2017-11-06T01:32:06.643Z,32.4
2017-11-06T01:33:06.867Z,32.4
2017-11-06T01:34:06.900Z,32.4
2017-11-06T01:35:06.966Z,32.3
2017-11-06T01:36:07.049Z,32.4
2017-11-06T01:37:06.957Z,32.4
2017-11-06T01:38:08.255Z,32.4
2017-11-06T01:39:07.213Z,32.4
2017-11-06T01:40:07.285Z,32.4
2017-11-06T01:41:07.357Z,32.4
2017-11-06T01:42:08.541Z,32.4
2017-11-06T01:43:07.228Z,32.4
2017-11-06T01:44:08.746Z,32.4
2017-11-06T01:45:07.264Z,32.4
2017-11-06T01:46:07.552Z,32.4
2017-11-06T01:47:08.689Z,32.4
2017-11-06T01:48:07.422Z,32.4
2017-11-06T01:49:07.435Z,32.4
2017-11-06T01:50:07.727Z,32.4
2017-11-06T01:51:08.586Z,32.4
2017-11-06T01:52:07.730Z,32.4
2017-11-06T01:53:08.889Z,32.4
2017-11-06T01:54:07.652Z,32.3
2017-11-06T01:55:08.818Z,32.3
2017-11-06T01:56:07.981Z,32.3
2017-11-06T01:57:09.155Z,32.3
2017-11-06T01:58:09.035Z,32.3
2017-11-06T01:59:09.278Z,32.3
2017-11-06T02:00:08.603Z,32.3
2017-11-06T02:01:08.294Z,32.3
2017-11-06T02:02:09.479Z,32.3
2017-11-06T02:03:08.365Z,32.3
2017-11-06T02:04:08.440Z,32.3
2017-11-06T02:05:08.251Z,32.3
2017-11-06T02:06:08.519Z,32.3
2017-11-06T02:07:08.558Z,32.3
2017-11-06T02:08:08.536Z,32.3
2017-11-06T02:09:08.610Z,32.3
2017-11-06T02:10:09.547Z,32.4
2017-11-06T02:11:08.490Z,32.4
2017-11-06T02:12:08.495Z,32.4
2017-11-06T02:13:08.756Z,32.4
2017-11-06T02:14:09.838Z,32.4
2017-11-06T02:15:09.705Z,32.4
2017-11-06T02:16:08.862Z,32.4
2017-11-06T02:17:08.972Z,32.4
2017-11-06T02:18:08.857Z,32.4
2017-11-06T02:19:09.026Z,32.3
2017-11-06T02:20:09.079Z,32.3
2017-11-06T02:21:10.126Z,32.3
2017-11-06T02:22:10.212Z,32.3
2017-11-06T02:23:10.289Z,32.3
2017-11-06T02:24:09.245Z,32.3
2017-11-06T02:25:10.375Z,32.3
2017-11-06T02:26:09.186Z,32.3
2017-11-06T02:27:09.271Z,32.3
2017-11-06T02:28:09.544Z,32.3
2017-11-06T02:29:09.423Z,32.3
2017-11-06T02:30:10.799Z,32.3
2017-11-06T02:31:10.691Z,32.3
2017-11-06T02:32:10.745Z,32.3
2017-11-06T02:33:09.974Z,32.3
2017-11-06T02:34:11.083Z,32.3
2017-11-06T02:35:11.185Z,32.3
2017-11-06T02:36:10.108Z,32.3
2017-11-06T02:37:11.090Z,32.3
2017-11-06T02:38:10.236Z,32.3
2017-11-06T02:39:10.334Z,32.3
2017-11-06T02:40:11.215Z,32.3
2017-11-06T02:41:10.167Z,32.3
2017-11-06T02:42:10.445Z,32.3
2017-11-06T02:43:10.268Z,32.3
2017-11-06T02:44:10.259Z,32.3
2017-11-06T02:45:10.547Z,32.3
2017-11-06T02:46:10.675Z,32.3
2017-11-06T02:47:10.515Z,32.3
2017-11-06T02:48:11.848Z,32.3
2017-11-06T02:49:11.966Z,32.3
2017-11-06T02:50:11.748Z,32.3
2017-11-06T02:51:10.718Z,32.3
2017-11-06T02:52:11.748Z,32.3
2017-11-06T02:53:10.965Z,32.3
2017-11-06T02:54:12.124Z,32.3
2017-11-06T02:55:12.110Z,32.3
2017-11-06T02:56:11.926Z,32.3
2017-11-06T02:57:12.000Z,32.3
2017-11-06T02:58:12.044Z,32.3
2017-11-06T02:59:11.236Z,32.3
2017-11-06T03:00:11.324Z,32.3
2017-11-06T03:01:12.181Z,32.3
2017-11-06T03:02:12.424Z,32.3
2017-11-06T03:03:11.177Z,32.3
2017-11-06T03:04:12.329Z,32.3
2017-11-06T03:05:12.560Z,32.3
2017-11-06T03:06:12.389Z,32.3
2017-11-06T03:07:11.572Z,32.3
2017-11-06T03:08:12.730Z,32.3
2017-11-06T03:09:12.479Z,32.3
2017-11-06T03:10:11.648Z,32.3
2017-11-06T03:11:12.834Z,32.3
2017-11-06T03:12:12.917Z,32.3
2017-11-06T03:13:13.028Z,32.3
2017-11-06T03:14:13.058Z,32.3
2017-11-06T03:15:12.895Z,32.3
2017-11-06T03:16:12.006Z,32.3
2017-11-06T03:17:13.201Z,32.3
2017-11-06T03:18:11.983Z,32.3
2017-11-06T03:19:12.037Z,32.3
2017-11-06T03:20:13.428Z,32.3
2017-11-06T03:21:12.129Z,32.3
2017-11-06T03:22:13.220Z,32.3
2017-11-06T03:23:13.252Z,32.3
2017-11-06T03:24:13.257Z,32.2
2017-11-06T03:25:13.375Z,32.2
2017-11-06T03:26:12.504Z,32.2
2017-11-06T03:27:12.519Z,32.2
2017-11-06T03:28:13.658Z,32.2
2017-11-06T03:29:12.414Z,32.2
2017-11-06T03:30:13.553Z,32.2
2017-11-06T03:31:12.741Z,32.2
2017-11-06T03:32:12.624Z,32.2
2017-11-06T03:33:13.699Z,32.3
2017-11-06T03:34:12.800Z,32.2
2017-11-06T03:35:12.870Z,32.2
2017-11-06T03:36:13.809Z,32.2
2017-11-06T03:37:12.807Z,32.2
2017-11-06T03:38:12.835Z,32.3
2017-11-06T03:39:12.831Z,32.3
2017-11-06T03:40:13.928Z,32.3
2017-11-06T03:41:12.971Z,32.3
2017-11-06T03:42:12.964Z,32.3
2017-11-06T03:43:13.175Z,32.3
2017-11-06T03:44:14.288Z,32.3
2017-11-06T03:45:14.307Z,32.2
2017-11-06T03:46:13.086Z,32.3
2017-11-06T03:47:13.361Z,32.2
2017-11-06T03:48:14.464Z,32.2
2017-11-06T03:49:14.337Z,32.2
2017-11-06T03:50:14.566Z,32.2
2017-11-06T03:51:13.492Z,32.2
2017-11-06T03:52:14.700Z,32.2
2017-11-06T03:53:14.798Z,32.2
2017-11-06T03:54:13.574Z,32.2
2017-11-06T03:55:14.866Z,32.2
2017-11-06T03:56:13.818Z,32.3
2017-11-06T03:57:13.685Z,32.3
2017-11-06T03:58:13.988Z,32.3
2017-11-06T03:59:14.059Z,32.3
2017-11-06T04:00:15.026Z,32.3
2017-11-06T04:01:14.824Z,32.2
2017-11-06T04:02:15.060Z,32.2
2017-11-06T04:03:15.318Z,32.2
2017-11-06T04:04:15.148Z,32.2
2017-11-06T04:05:15.410Z,32.2
2017-11-06T04:06:15.453Z,32.2
2017-11-06T04:07:14.247Z,32.2
2017-11-06T04:08:14.287Z,32.2
2017-11-06T04:09:14.541Z,32.2
2017-11-06T04:10:15.717Z,32.2
2017-11-06T04:11:15.786Z,32.2
2017-11-06T04:12:14.577Z,32.2
2017-11-06T04:13:14.785Z,32.2
2017-11-06T04:14:15.720Z,32.2
2017-11-06T04:15:14.691Z,32.2
2017-11-06T04:16:15.964Z,32.2
2017-11-06T04:17:16.058Z,32.2
2017-11-06T04:18:15.841Z,32.2
2017-11-06T04:19:14.791Z,32.2
2017-11-06T04:20:15.938Z,32.2
2017-11-06T04:21:15.103Z,32.2
2017-11-06T04:22:15.142Z,32.2
2017-11-06T04:23:14.970Z,32.2
2017-11-06T04:24:16.067Z,32.2
2017-11-06T04:25:14.986Z,32.2
2017-11-06T04:26:15.300Z,32.2
2017-11-06T04:27:15.333Z,32.2
2017-11-06T04:28:15.341Z,32.2
2017-11-06T04:29:16.329Z,32.2
2017-11-06T04:30:15.295Z,32.2
2017-11-06T04:31:16.611Z,32.2
2017-11-06T04:32:15.511Z,32.2
2017-11-06T04:33:16.671Z,32.2
2017-11-06T04:34:16.501Z,32.2
2017-11-06T04:35:16.748Z,32.2
2017-11-06T04:36:15.766Z,32.1
2017-11-06T04:37:16.742Z,32.1
2017-11-06T04:38:16.786Z,32.2
2017-11-06T04:39:16.824Z,32.2
2017-11-06T04:40:16.865Z,32.2
2017-11-06T04:41:15.957Z,32.2
2017-11-06T04:42:16.938Z,32.2
2017-11-06T04:43:17.017Z,32.2
2017-11-06T04:44:17.300Z,32.2
2017-11-06T04:45:16.241Z,32.2
2017-11-06T04:46:16.143Z,32.2
2017-11-06T04:47:16.132Z,32.2
2017-11-06T04:48:17.285Z,32.2
2017-11-06T04:49:17.317Z,32.2
2017-11-06T04:50:17.366Z,32.2
2017-11-06T04:51:17.459Z,32.2
2017-11-06T04:52:17.785Z,32.2
2017-11-06T04:53:16.457Z,32.2
2017-11-06T04:54:17.548Z,32.2
2017-11-06T04:55:17.832Z,32.2
2017-11-06T04:56:16.600Z,32.2
2017-11-06T04:57:16.851Z,32.2
2017-11-06T04:58:17.790Z,32.2
2017-11-06T04:59:18.045Z,32.2
2017-11-06T05:00:18.109Z,32.2
2017-11-06T05:01:17.011Z,32.2
2017-11-06T05:02:17.967Z,32.2
2017-11-06T05:03:18.059Z,32.2
2017-11-06T05:04:18.057Z,32.2
2017-11-06T05:05:18.177Z,32.2
2017-11-06T05:06:18.467Z,32.1
2017-11-06T05:07:17.209Z,32.1
2017-11-06T05:08:17.375Z,32.2
2017-11-06T05:09:17.463Z,32.2
2017-11-06T05:10:17.351Z,32.2
2017-11-06T05:11:18.815Z,32.2
2017-11-06T05:12:18.507Z,32.2
2017-11-06T05:13:18.772Z,32.2
2017-11-06T05:14:17.518Z,32.2
2017-11-06T05:15:18.895Z,32.2
2017-11-06T05:16:18.951Z,32.2
2017-11-06T05:17:18.792Z,32.2
2017-11-06T05:18:18.828Z,32.2
2017-11-06T05:19:18.868Z,32.2
2017-11-06T05:20:19.135Z,32.2
2017-11-06T05:21:19.188Z,32.2
2017-11-06T05:22:19.312Z,32.2
2017-11-06T05:23:19.217Z,32.2
2017-11-06T05:24:19.548Z,32.2
2017-11-06T05:25:19.532Z,32.2
2017-11-06T05:26:19.582Z,32.2
2017-11-06T05:27:18.199Z,32.2
2017-11-06T05:28:18.409Z,32.2
2017-11-06T05:29:18.452Z,32.1
2017-11-06T05:30:19.600Z,31.9
2017-11-06T05:31:18.394Z,31.9
2017-11-06T05:32:19.553Z,31.8
2017-11-06T05:33:19.660Z,31.8
2017-11-06T05:34:18.809Z,31.8
2017-11-06T05:35:19.758Z,31.8
2017-11-06T05:36:18.731Z,31.7
2017-11-06T05:37:19.896Z,31.7
2017-11-06T05:38:18.806Z,31.7
2017-11-06T05:39:19.933Z,31.7
2017-11-06T05:40:18.956Z,31.8
2017-11-06T05:41:19.145Z,31.8
2017-11-06T05:42:20.278Z,31.8
2017-11-06T05:43:20.096Z,31.8
2017-11-06T05:44:19.022Z,31.7
2017-11-06T05:45:19.285Z,31.7
2017-11-06T05:46:19.353Z,31.6
2017-11-06T05:47:19.214Z,31.6
2017-11-06T05:48:19.263Z,31.5
2017-11-06T05:49:19.233Z,31.5
2017-11-06T05:50:20.357Z,31.5
2017-11-06T05:51:19.556Z,31.5
2017-11-06T05:52:19.499Z,31.4
2017-11-06T05:53:19.547Z,31.4
2017-11-06T05:54:19.606Z,31.4
2017-11-06T05:55:19.879Z,31.3
2017-11-06T05:56:19.741Z,31.3
2017-11-06T05:57:19.824Z,31.3
2017-11-06T05:58:20.974Z,31.3
2017-11-06T05:59:19.925Z,31.2
2017-11-06T06:00:20.159Z,31.2
2017-11-06T06:01:21.293Z,31.2
2017-11-06T06:02:21.141Z,31.1
2017-11-06T06:03:21.342Z,31.1
2017-11-06T06:04:20.118Z,31.1
2017-11-06T06:05:21.446Z,31.1
2017-11-06T06:06:20.333Z,31
2017-11-06T06:07:21.522Z,31
2017-11-06T06:08:20.253Z,31
2017-11-06T06:09:20.491Z,30.9
2017-11-06T06:10:21.436Z,30.9
2017-11-06T06:11:20.609Z,30.9
2017-11-06T06:12:20.481Z,30.8
2017-11-06T06:13:20.486Z,30.8
2017-11-06T06:14:20.580Z,30.8
2017-11-06T06:15:21.728Z,30.8
2017-11-06T06:16:21.769Z,30.7
2017-11-06T06:17:21.838Z,30.7
2017-11-06T06:18:21.901Z,30.7
2017-11-06T06:19:22.153Z,30.7
2017-11-06T06:20:20.950Z,30.7
2017-11-06T06:21:21.013Z,30.7
2017-11-06T06:22:22.172Z,30.7
2017-11-06T06:23:22.187Z,30.7
2017-11-06T06:24:22.216Z,30.8
2017-11-06T06:25:22.488Z,30.8
2017-11-06T06:26:24.808Z,30.4
2017-11-06T06:27:22.677Z,30.2
2017-11-06T06:28:21.547Z,30.2
2017-11-06T06:29:23.893Z,30.1
2017-11-06T06:30:23.430Z,30.3
2017-11-06T06:31:21.726Z,30.5
2017-11-06T06:32:22.930Z,30.7
2017-11-06T06:33:22.975Z,30.8
2017-11-06T06:34:22.986Z,31
2017-11-06T06:35:23.094Z,31.2
2017-11-06T06:36:21.791Z,31.2
2017-11-06T06:37:23.338Z,31.4
2017-11-06T06:38:22.931Z,31.5
2017-11-06T06:39:23.163Z,31.7
2017-11-06T06:40:21.896Z,31.8
2017-11-06T06:41:22.115Z,31.9
2017-11-06T06:42:23.334Z,32.1
2017-11-06T06:43:22.699Z,32.3
2017-11-06T06:44:23.173Z,32.5
2017-11-06T06:45:22.354Z,32.6
2017-11-06T06:46:22.144Z,32.7
2017-11-06T06:47:22.207Z,32.8
2017-11-06T06:48:22.528Z,33
2017-11-06T06:49:22.575Z,33.2
2017-11-06T06:50:23.491Z,33.3
2017-11-06T06:51:22.598Z,33.4
2017-11-06T06:52:23.522Z,33.4
2017-11-06T06:53:24.136Z,33.5
2017-11-06T06:54:22.527Z,33.5
2017-11-06T06:55:22.597Z,33.6
2017-11-06T06:56:22.639Z,33.7
2017-11-06T06:57:22.817Z,33.8
2017-11-06T06:58:23.862Z,33.9
2017-11-06T06:59:24.158Z,34
2017-11-06T07:00:23.239Z,34
2017-11-06T07:01:24.026Z,34
2017-11-06T07:02:22.991Z,33.9
2017-11-06T07:03:24.365Z,33.8
2017-11-06T07:04:23.157Z,33.7
2017-11-06T07:05:24.274Z,33.7
2017-11-06T07:06:24.559Z,33.8
2017-11-06T07:07:24.567Z,33.8
2017-11-06T07:08:24.371Z,33.9
2017-11-06T07:09:23.373Z,34.1
2017-11-06T07:10:24.692Z,34.2
2017-11-06T07:11:23.427Z,34.3
2017-11-06T07:12:23.636Z,34.4
2017-11-06T07:13:26.063Z,34.4
2017-11-06T07:14:26.955Z,34.5
2017-11-06T07:15:23.532Z,34.4
2017-11-06T07:16:23.614Z,34.4
2017-11-06T07:17:24.846Z,34.4
2017-11-06T07:18:25.106Z,34.4
2017-11-06T07:19:23.869Z,34.4
2017-11-06T07:20:24.131Z,34.3
2017-11-06T07:21:25.198Z,34.3
2017-11-06T07:22:25.110Z,34.3
2017-11-06T07:23:25.196Z,34.2
2017-11-06T07:24:25.200Z,34.2
2017-11-06T07:25:25.448Z,34.2
2017-11-06T07:26:24.215Z,34.2
2017-11-06T07:27:24.303Z,34.1
2017-11-06T07:28:25.416Z,34
2017-11-06T07:29:24.577Z,34
2017-11-06T07:30:24.460Z,34
2017-11-06T07:31:25.856Z,33.9
2017-11-06T07:32:25.672Z,33.9
2017-11-06T07:33:24.762Z,33.9
2017-11-06T07:34:25.983Z,33.9
2017-11-06T07:35:24.718Z,33.8
2017-11-06T07:36:25.822Z,33.7
2017-11-06T07:37:24.805Z,33.6
2017-11-06T07:38:25.012Z,33.6
2017-11-06T07:39:25.032Z,33.5
2017-11-06T07:40:26.215Z,33.6
2017-11-06T07:41:26.275Z,33.5
2017-11-06T07:42:26.397Z,33.5
2017-11-06T07:43:25.056Z,33.4
2017-11-06T07:44:25.341Z,33.4
2017-11-06T07:45:26.211Z,33.4
2017-11-06T07:46:25.410Z,33.4
2017-11-06T07:47:26.355Z,33.5
2017-11-06T07:48:26.268Z,33.5
2017-11-06T07:49:26.508Z,33.5
2017-11-06T07:50:26.491Z,33.5
2017-11-06T07:51:25.546Z,33.5
2017-11-06T07:52:26.642Z,33.5
2017-11-06T07:53:26.327Z,33.5
2017-11-06T07:54:25.916Z,33.5
2017-11-06T07:55:26.803Z,33.4
2017-11-06T07:56:26.897Z,33.4
2017-11-06T07:57:26.066Z,33.4
2017-11-06T07:58:27.201Z,33.4
2017-11-06T07:59:25.979Z,33.4
2017-11-06T08:00:26.058Z,33.4
2017-11-06T08:01:27.287Z,33.5
2017-11-06T08:02:26.050Z,33.5
2017-11-06T08:03:27.454Z,33.4
2017-11-06T08:04:27.258Z,33.4
2017-11-06T08:05:27.629Z,33.4
2017-11-06T08:06:26.609Z,33.4
2017-11-06T08:07:26.622Z,33.4
2017-11-06T08:08:27.795Z,33.4
2017-11-06T08:09:26.639Z,33.5
2017-11-06T08:10:27.611Z,33.5
2017-11-06T08:11:26.577Z,33.5
2017-11-06T08:12:26.954Z,33.5
2017-11-06T08:13:27.815Z,33.5
2017-11-06T08:14:27.789Z,33.5
2017-11-06T08:15:26.774Z,33.5
2017-11-06T08:16:29.727Z,33.5
2017-11-06T08:17:26.834Z,33.6
2017-11-06T08:18:28.126Z,33.6
2017-11-06T08:19:28.145Z,33.6
2017-11-06T08:20:27.858Z,33.6
2017-11-06T08:21:26.952Z,33.7
2017-11-06T08:22:27.172Z,33.7
2017-11-06T08:23:27.018Z,33.7
2017-11-06T08:24:27.488Z,33.7
2017-11-06T08:25:27.378Z,33.7
2017-11-06T08:26:28.489Z,33.6
2017-11-06T08:27:27.551Z,33.6
2017-11-06T08:28:27.312Z,33.6
2017-11-06T08:29:28.429Z,33.5
2017-11-06T08:30:28.564Z,33.5
2017-11-06T08:31:27.646Z,33.5
2017-11-06T08:32:27.750Z,33.5
2017-11-06T08:33:28.629Z,33.5
2017-11-06T08:34:28.745Z,33.4
2017-11-06T08:35:29.032Z,33.4
2017-11-06T08:36:28.065Z,33.4
2017-11-06T08:37:28.103Z,33.4
2017-11-06T08:38:28.004Z,33.4
2017-11-06T08:39:29.740Z,33.4
2017-11-06T08:40:28.237Z,33.4
2017-11-06T08:41:29.342Z,33.4
2017-11-06T08:42:28.057Z,33.3
2017-11-06T08:43:29.152Z,33.3
2017-11-06T08:44:28.347Z,33.2
2017-11-06T08:45:28.302Z,33.2
2017-11-06T08:46:28.357Z,33.2
2017-11-06T08:47:29.273Z,33.2
2017-11-06T08:48:28.282Z,33.2
2017-11-06T08:49:31.029Z,33.2
2017-11-06T08:50:28.490Z,33.2
2017-11-06T08:51:28.407Z,33.2
2017-11-06T08:52:28.361Z,33.1
2017-11-06T08:53:28.656Z,33.1
2017-11-06T08:54:29.536Z,33.1
2017-11-06T08:55:28.601Z,33
2017-11-06T08:56:29.734Z,33
2017-11-06T08:57:28.943Z,33
2017-11-06T08:58:28.857Z,32.9
2017-11-06T08:59:28.982Z,32.9
2017-11-06T09:00:30.094Z,32.9
2017-11-06T09:01:30.158Z,32.8
2017-11-06T09:02:30.258Z,32.8
2017-11-06T09:03:30.001Z,32.8
2017-11-06T09:04:30.220Z,32.7
2017-11-06T09:05:28.953Z,32.7
2017-11-06T09:06:31.011Z,32.6
2017-11-06T09:07:30.155Z,32.5
2017-11-06T09:08:30.391Z,32.5
2017-11-06T09:09:29.417Z,32.5
2017-11-06T09:10:30.354Z,32.5
2017-11-06T09:11:30.517Z,32.5
2017-11-06T09:12:29.759Z,32.4
2017-11-06T09:13:30.565Z,32.4
2017-11-06T09:14:30.911Z,32.3
2017-11-06T09:15:29.898Z,32.3
2017-11-06T09:16:30.185Z,32.1
2017-11-06T09:17:29.568Z,32
2017-11-06T09:18:31.017Z,32
2017-11-06T09:19:31.093Z,32
2017-11-06T09:20:31.122Z,32
2017-11-06T09:21:31.482Z,32
2017-11-06T09:22:31.087Z,31.9
2017-11-06T09:23:30.248Z,31.9
2017-11-06T09:24:30.666Z,31.9
2017-11-06T09:25:30.658Z,31.9
2017-11-06T09:26:31.272Z,31.9
2017-11-06T09:27:30.287Z,31.9
2017-11-06T09:28:31.284Z,31.8
2017-11-06T09:29:30.514Z,31.8
2017-11-06T09:30:31.401Z,31.9
2017-11-06T09:31:30.506Z,31.9
2017-11-06T09:32:30.645Z,31.9
2017-11-06T09:33:31.587Z,31.9
2017-11-06T09:34:30.839Z,31.9
2017-11-06T09:35:31.752Z,31.9
2017-11-06T09:36:30.679Z,31.9
2017-11-06T09:37:31.759Z,31.9
2017-11-06T09:38:31.779Z,31.9
2017-11-06T09:39:31.299Z,31.9
2017-11-06T09:40:32.096Z,31.9
2017-11-06T09:41:31.924Z,31.9
2017-11-06T09:42:32.232Z,31.9
2017-11-06T09:43:30.843Z,31.8
2017-11-06T09:44:31.104Z,31.7
2017-11-06T09:45:32.117Z,31.8
2017-11-06T09:46:31.102Z,31.8
2017-11-06T09:47:32.286Z,31.9
2017-11-06T09:48:32.127Z,31.9
2017-11-06T09:49:32.200Z,32
2017-11-06T09:50:32.618Z,32
2017-11-06T09:51:32.607Z,32
2017-11-06T09:52:32.706Z,32
2017-11-06T09:53:32.400Z,32
2017-11-06T09:54:32.573Z,32
2017-11-06T09:55:31.731Z,32.1
2017-11-06T09:56:31.432Z,32.1
2017-11-06T09:57:31.615Z,32.1
2017-11-06T09:58:32.728Z,32.1
2017-11-06T09:59:32.661Z,32.1
2017-11-06T10:00:32.690Z,32.1
2017-11-06T10:01:33.177Z,32.1
2017-11-06T10:02:32.843Z,32.1
2017-11-06T10:03:32.142Z,32.1
2017-11-06T10:04:32.078Z,32.1
2017-11-06T10:05:33.195Z,32
2017-11-06T10:06:32.985Z,31.8
2017-11-06T10:07:32.151Z,31.7
2017-11-06T10:08:34.438Z,31.7
2017-11-06T10:09:33.546Z,31.8
2017-11-06T10:10:33.446Z,31.8
2017-11-06T10:11:33.247Z,31.7
2017-11-06T10:12:32.295Z,31.6
2017-11-06T10:13:33.397Z,31.5
2017-11-06T10:14:33.765Z,31.5
2017-11-06T10:15:32.434Z,31.4
2017-11-06T10:16:32.662Z,31.3
2017-11-06T10:17:33.785Z,31.2
2017-11-06T10:18:33.619Z,31.2
2017-11-06T10:19:32.752Z,31.1
2017-11-06T10:20:32.755Z,31
2017-11-06T10:21:32.847Z,30.9
2017-11-06T10:22:33.348Z,30.8
2017-11-06T10:23:34.087Z,30.7
2017-11-06T10:24:33.346Z,30.7
2017-11-06T10:25:33.659Z,30.7
2017-11-06T10:26:34.474Z,30.7
2017-11-06T10:27:34.501Z,30.7
2017-11-06T10:28:33.477Z,30.7
2017-11-06T10:29:33.609Z,30.8
2017-11-06T10:30:33.335Z,30.8
2017-11-06T10:31:34.831Z,30.8
2017-11-06T10:32:34.557Z,30.7
2017-11-06T10:33:33.462Z,30.8
2017-11-06T10:34:34.753Z,30.7
2017-11-06T10:35:33.494Z,30.7
2017-11-06T10:36:33.645Z,30.7
2017-11-06T10:37:34.935Z,30.7
2017-11-06T10:38:35.032Z,30.7
2017-11-06T10:39:33.883Z,30.7
2017-11-06T10:40:35.046Z,30.7
2017-11-06T10:41:34.895Z,30.6
2017-11-06T10:42:35.207Z,30.6
2017-11-06T10:43:34.133Z,30.6
2017-11-06T10:44:35.198Z,30.6
2017-11-06T10:45:33.960Z,30.6
2017-11-06T10:46:35.111Z,30.5
2017-11-06T10:47:35.324Z,30.5
2017-11-06T10:48:35.240Z,30.5
2017-11-06T10:49:35.464Z,30.4
2017-11-06T10:50:34.364Z,30.4
2017-11-06T10:51:35.451Z,30.4
2017-11-06T10:52:35.566Z,30.3
2017-11-06T10:53:35.803Z,30.1
2017-11-06T10:54:35.674Z,30
2017-11-06T10:55:36.054Z,29.8
2017-11-06T10:56:35.728Z,29.7
2017-11-06T10:57:35.612Z,29.6
2017-11-06T10:58:34.828Z,29.4
2017-11-06T10:59:34.627Z,29.5
2017-11-06T11:00:34.936Z,29.4
2017-11-06T11:01:36.396Z,29.4
2017-11-06T11:02:35.008Z,29.4
2017-11-06T11:03:34.733Z,29.3
2017-11-06T11:04:36.085Z,29.2
2017-11-06T11:05:36.170Z,29.2
2017-11-06T11:06:35.968Z,29.1
2017-11-06T11:07:36.045Z,29
2017-11-06T11:08:34.912Z,28.9
2017-11-06T11:09:36.010Z,28.8
2017-11-06T11:10:36.281Z,28.8
2017-11-06T11:11:36.413Z,28.9
2017-11-06T11:12:35.316Z,29
2017-11-06T11:13:35.235Z,29
2017-11-06T11:14:36.484Z,29.1
2017-11-06T11:15:35.340Z,29.2
2017-11-06T11:16:36.403Z,29.2
2017-11-06T11:17:36.612Z,29.3
2017-11-06T11:18:35.800Z,29.4
2017-11-06T11:19:36.629Z,29.5
2017-11-06T11:20:36.931Z,29.5
2017-11-06T11:21:35.570Z,29.5
2017-11-06T11:22:36.776Z,29.6
2017-11-06T11:23:36.807Z,29.7
2017-11-06T11:24:36.809Z,29.8
2017-11-06T11:25:37.002Z,29.9
2017-11-06T11:26:36.503Z,30
2017-11-06T11:27:35.794Z,30.1
2017-11-06T11:28:37.108Z,30.1
2017-11-06T11:29:36.046Z,30
2017-11-06T11:30:36.217Z,29.9
2017-11-06T11:31:35.969Z,29.9
2017-11-06T11:32:36.812Z,29.8
2017-11-06T11:33:40.974Z,29.8
2017-11-06T11:34:37.443Z,29.8
2017-11-06T11:35:37.530Z,29.9
2017-11-06T11:36:36.183Z,30
2017-11-06T11:37:36.210Z,30
2017-11-06T11:38:38.842Z,30
2017-11-06T11:39:37.653Z,30.1
2017-11-06T11:40:37.451Z,30
2017-11-06T11:41:37.720Z,30.1
2017-11-06T11:42:36.594Z,30.1
2017-11-06T11:43:37.558Z,30
2017-11-06T11:44:37.632Z,29.8
2017-11-06T11:45:36.592Z,29.7
2017-11-06T11:46:36.648Z,29.7
2017-11-06T11:47:37.720Z,29.7
2017-11-06T11:48:38.110Z,29.7
2017-11-06T11:49:38.216Z,29.6
2017-11-06T11:50:37.946Z,29.6
2017-11-06T11:51:36.905Z,29.6
2017-11-06T11:52:38.385Z,29.5
2017-11-06T11:53:38.203Z,29.5
2017-11-06T11:54:37.609Z,29.6
2017-11-06T11:55:37.260Z,29.6
2017-11-06T11:56:37.323Z,29.6
2017-11-06T11:57:38.438Z,29.7
2017-11-06T11:58:38.450Z,29.8
2017-11-06T11:59:37.390Z,29.8
2017-11-06T12:00:37.666Z,29.9
2017-11-06T12:01:37.796Z,29.9
2017-11-06T12:02:38.840Z,29.8
2017-11-06T12:03:37.879Z,29.8
2017-11-06T12:04:39.042Z,29.8
2017-11-06T12:05:37.808Z,29.7
2017-11-06T12:06:37.742Z,29.7
2017-11-06T12:07:37.970Z,29.7
2017-11-06T12:08:38.059Z,29.7
2017-11-06T12:09:38.939Z,29.7
2017-11-06T12:10:39.019Z,29.8
2017-11-06T12:11:39.084Z,29.8
2017-11-06T12:12:39.347Z,29.8
2017-11-06T12:13:39.323Z,29.8
2017-11-06T12:14:39.675Z,29.9
2017-11-06T12:15:38.235Z,29.8
2017-11-06T12:16:39.483Z,29.9
2017-11-06T12:17:38.572Z,29.8
2017-11-06T12:18:39.494Z,29.8
2017-11-06T12:19:38.419Z,29.6
2017-11-06T12:20:38.616Z,29.5
2017-11-06T12:21:38.545Z,29.4
2017-11-06T12:22:38.590Z,29.4
2017-11-06T12:23:39.625Z,29.4
2017-11-06T12:24:38.663Z,29.5
2017-11-06T12:25:39.984Z,29.5
2017-11-06T12:26:39.625Z,29.6
2017-11-06T12:27:39.931Z,29.7
2017-11-06T12:28:38.954Z,29.7
2017-11-06T12:29:38.845Z,29.6
2017-11-06T12:30:40.111Z,29.5
2017-11-06T12:31:39.995Z,29.4
2017-11-06T12:32:39.984Z,29.5
2017-11-06T12:33:39.257Z,29.4
2017-11-06T12:34:39.223Z,29.5
2017-11-06T12:35:40.411Z,29.5
2017-11-06T12:36:39.090Z,29.6
2017-11-06T12:37:39.378Z,29.6
2017-11-06T12:38:40.752Z,29.6
2017-11-06T12:39:39.281Z,29.7
2017-11-06T12:40:40.350Z,29.6
2017-11-06T12:41:40.478Z,29.6
2017-11-06T12:42:40.187Z,29.6
2017-11-06T12:43:39.720Z,29.7
2017-11-06T12:44:40.203Z,29.7
2017-11-06T12:45:41.089Z,29.6
2017-11-06T12:46:40.147Z,29.6
2017-11-06T12:47:40.841Z,29.6
2017-11-06T12:48:39.994Z,29.6
2017-11-06T12:49:39.974Z,29.6
2017-11-06T12:50:40.065Z,29.7
2017-11-06T12:51:40.080Z,29.7
2017-11-06T12:52:42.328Z,29.8
2017-11-06T12:53:42.475Z,29.8
2017-11-06T12:54:41.414Z,29.8
2017-11-06T12:55:41.692Z,29.8
2017-11-06T12:56:41.419Z,29.8
2017-11-06T12:57:41.285Z,29.9
2017-11-06T12:58:40.671Z,29.9
2017-11-06T12:59:40.897Z,29.9
2017-11-06T13:00:40.715Z,29.9
2017-11-06T13:01:41.750Z,29.9
2017-11-06T13:02:42.096Z,29.9
2017-11-06T13:03:40.786Z,29.9
2017-11-06T13:04:40.763Z,29.9
2017-11-06T13:05:41.136Z,29.9
2017-11-06T13:06:41.009Z,29.9
2017-11-06T13:07:41.952Z,29.9
2017-11-06T13:08:40.788Z,29.8
2017-11-06T13:09:41.077Z,29.9
2017-11-06T13:10:40.934Z,29.9
2017-11-06T13:11:42.242Z,29.9
2017-11-06T13:12:42.691Z,29.9
2017-11-06T13:13:41.089Z,29.9
2017-11-06T13:14:42.129Z,29.9
2017-11-06T13:15:42.170Z,30
2017-11-06T13:16:42.765Z,30
2017-11-06T13:17:43.173Z,30
2017-11-06T13:18:42.498Z,30
2017-11-06T13:19:42.526Z,30
2017-11-06T13:20:41.493Z,30.1
2017-11-06T13:21:42.818Z,30.1